Time;durP1;ratioP1;P1;durP2;ratioP2;P2;SDS_P1;SDS_P2;PMS_P1;PMS_P2;Temp;Humidity;BMP_temperature;BMP_pressure;BME280_temperature;BME280_humidity;BME280_pressure;Samples;Min_cycle;Max_cycle;Signal;HPM_P1;HPM_P2
2021/01/12 00:02:24;;;;;;;5.60;4.17;;;;;;;4.62;100.00;96466.09;4996226;28;20588;-89
2021/01/12 00:04:52;;;;;;;4.40;3.90;;;;;;;4.76;100.00;96450.22;4996336;28;20576;-90
2021/01/12 00:07:20;;;;;;;2.33;2.03;;;;;;;4.89;100.00;96445.72;4996452;28;20239;-90
2021/01/12 00:09:47;;;;;;;9.73;3.27;;;;;;;4.64;100.00;96449.41;4996288;28;20667;-91
2021/01/12 00:12:14;;;;;;;1.23;1.23;;;;;;;4.69;100.00;96447.25;4995740;28;20311;-91
2021/01/12 00:14:41;;;;;;;2.53;1.83;;;;;;;4.60;100.00;96458.38;4995837;28;20275;-90
2021/01/12 00:17:08;;;;;;;2.50;2.30;;;;;;;4.66;100.00;96465.72;4995880;28;20207;-91
2021/01/12 00:19:37;;;;;;;3.80;3.27;;;;;;;4.51;100.00;96478.13;4996004;28;20196;-90
2021/01/12 00:22:07;;;;;;;2.80;2.60;;;;;;;4.48;100.00;96478.38;4995531;28;20250;-90
2021/01/12 00:24:35;;;;;;;2.93;1.07;;;;;;;4.56;100.00;96487.38;4995991;28;20188;-90
2021/01/12 00:27:02;;;;;;;0.73;0.73;;;;;;;4.43;100.00;96485.69;4995683;28;20204;-90
2021/01/12 00:29:29;;;;;;;1.07;0.83;;;;;;;4.28;100.00;96476.44;4995782;28;20199;-90
2021/01/12 00:31:55;;;;;;;1.73;1.10;;;;;;;4.34;100.00;96478.56;4995885;28;20263;-89
2021/01/12 00:34:22;;;;;;;1.13;1.10;;;;;;;4.40;100.00;96464.25;4995582;28;20316;-90
2021/01/12 00:36:51;;;;;;;0.60;0.60;;;;;;;4.45;100.00;96460.38;4995736;28;20219;-89
2021/01/12 00:39:18;;;;;;;1.30;1.20;;;;;;;4.51;100.00;96454.72;4995033;28;20196;-90
2021/01/12 00:41:47;;;;;;;1.10;1.00;;;;;;;4.67;100.00;96446.53;4995487;28;20669;-90
2021/01/12 00:44:14;;;;;;;2.20;1.80;;;;;;;4.71;100.00;96439.31;4995488;28;20238;-89
2021/01/12 00:46:44;;;;;;;3.37;1.30;;;;;;;4.27;100.00;96431.38;4995183;28;20200;-89
2021/01/12 00:49:11;;;;;;;1.50;1.30;;;;;;;4.49;100.00;96424.53;4994931;28;20236;-89
2021/01/12 00:51:39;;;;;;;1.20;1.10;;;;;;;4.63;100.00;96426.06;4995342;28;20259;-90
2021/01/12 00:54:08;;;;;;;1.00;1.00;;;;;;;4.50;100.00;96423.56;4994309;28;20197;-89
2021/01/12 00:56:38;;;;;;;1.73;1.50;;;;;;;4.44;100.00;96419.69;4995185;28;20251;-90
2021/01/12 00:59:05;;;;;;;1.90;1.70;;;;;;;4.58;100.00;96420.41;4994911;28;20291;-90
2021/01/12 01:01:32;;;;;;;2.20;2.00;;;;;;;4.52;100.00;96424.31;4995020;28;20291;-89
2021/01/12 01:03:59;;;;;;;1.67;1.57;;;;;;;4.52;100.00;96419.91;4994983;28;20666;-90
2021/01/12 01:06:26;;;;;;;1.87;1.70;;;;;;;4.42;100.00;96405.13;4995276;28;20205;-89
2021/01/12 01:08:53;;;;;;;1.57;1.47;;;;;;;4.44;100.00;96395.44;4995010;28;20279;-90
2021/01/12 01:11:21;;;;;;;1.07;0.90;;;;;;;4.50;100.00;96388.00;4994858;28;20219;-90
2021/01/12 01:13:48;;;;;;;1.37;1.27;;;;;;;4.29;100.00;96387.00;4994677;28;20287;-90
2021/01/12 01:16:15;;;;;;;2.30;1.30;;;;;;;4.09;100.00;96391.16;4994715;28;20331;-90
2021/01/12 01:18:42;;;;;;;1.40;1.30;;;;;;;4.21;100.00;96415.41;4994663;28;20246;-89
2021/01/12 01:21:12;;;;;;;1.53;1.43;;;;;;;4.36;100.00;96414.22;4994522;28;20204;-91
2021/01/12 01:23:39;;;;;;;1.90;0.90;;;;;;;4.37;100.00;96408.09;4994499;28;20673;-90
2021/01/12 01:26:07;;;;;;;0.83;0.83;;;;;;;4.26;100.00;96408.06;4994898;28;20748;-90
2021/01/12 01:28:34;;;;;;;0.90;0.90;;;;;;;4.32;100.00;96399.78;4994473;28;20230;-89
2021/01/12 01:31:01;;;;;;;1.67;1.57;;;;;;;4.30;100.00;96412.09;4994637;28;20708;-89
2021/01/12 01:33:28;;;;;;;2.03;1.87;;;;;;;4.32;100.00;96406.78;4994341;28;20211;-89
2021/01/12 01:35:55;;;;;;;2.17;1.97;;;;;;;4.35;100.00;96399.56;4994628;28;20200;-90
2021/01/12 01:38:22;;;;;;;2.13;1.77;;;;;;;4.41;100.00;96396.50;4994335;28;20287;-89
2021/01/12 01:40:48;;;;;;;1.03;1.03;;;;;;;4.32;100.00;96378.97;4994429;28;20749;-89
2021/01/12 01:43:20;;;;;;;1.07;1.07;;;;;;;4.32;100.00;96376.38;4994673;28;20192;-90
2021/01/12 01:45:48;;;;;;;2.83;1.80;;;;;;;4.49;100.00;96382.88;4994354;28;20250;-89
2021/01/12 01:48:16;;;;;;;1.40;1.30;;;;;;;4.60;100.00;96390.69;4993963;28;20235;-90
2021/01/12 01:50:43;;;;;;;1.40;1.13;;;;;;;4.39;100.00;96380.16;4994031;28;20215;-89
2021/01/12 01:53:10;;;;;;;2.40;1.07;;;;;;;4.41;100.00;96377.47;4994215;28;20200;-89
2021/01/12 01:55:37;;;;;;;0.80;0.80;;;;;;;4.23;100.00;96367.50;4994062;28;20192;-90
2021/01/12 01:58:05;;;;;;;2.53;1.20;;;;;;;4.06;100.00;96378.38;4994218;28;20700;-90
2021/01/12 02:00:33;;;;;;;0.67;0.67;;;;;;;4.07;100.00;96369.63;4993861;28;20235;-90
2021/01/12 02:03:15;;;;;;;0.47;0.37;;;;;;;3.96;100.00;96356.59;4993945;28;20360;-89
2021/01/12 02:05:48;;;;;;;0.70;0.70;;;;;;;4.02;100.00;96346.56;4993437;28;20760;-89
2021/01/12 02:08:22;;;;;;;2.40;0.60;;;;;;;4.04;100.00;96331.66;4993853;28;20283;-89
2021/01/12 02:10:51;;;;;;;1.00;1.00;;;;;;;4.27;100.00;96316.88;4913103;28;20565;-89
2021/01/12 02:13:24;;;;;;;0.97;0.80;;;;;;;4.30;100.00;96313.22;4899296;29;20204;-89
2021/01/12 02:15:56;;;;;;;0.90;0.80;;;;;;;4.17;100.00;96291.72;4894476;29;20208;-89
2021/01/12 02:18:32;;;;;;;0.90;0.90;;;;;;;4.02;100.00;96281.53;4894217;29;20232;-89
2021/01/12 02:21:01;;;;;;;1.00;0.97;;;;;;;4.08;100.00;96275.03;4894806;29;20192;-90
2021/01/12 02:23:35;;;;;;;1.10;1.00;;;;;;;3.96;100.00;96282.00;4894807;29;20204;-89
2021/01/12 02:26:15;;;;;;;3.03;0.90;;;;;;;3.83;100.00;96296.88;4893980;29;20539;-90
2021/01/12 02:28:42;;;;;;;0.60;0.60;;;;;;;3.94;100.00;96294.28;4894351;29;20687;-90
2021/01/12 02:31:09;;;;;;;0.93;0.93;;;;;;;3.92;100.00;96311.78;4894490;29;20235;-90
2021/01/12 02:33:38;;;;;;;2.53;1.13;;;;;;;3.96;100.00;96312.38;4894631;29;20258;-90
2021/01/12 02:36:10;;;;;;;0.97;0.97;;;;;;;3.76;100.00;96291.31;4894747;29;20674;-90
2021/01/12 02:38:36;;;;;;;2.23;0.90;;;;;;;4.01;100.00;96290.28;4894131;29;20212;-89
2021/01/12 02:41:14;;;;;;;0.70;0.70;;;;;;;4.11;100.00;96294.78;4910366;29;20736;-89
2021/01/12 02:43:42;;;;;;;1.10;1.00;;;;;;;4.20;100.00;96289.69;4913140;29;20218;-90
2021/01/12 02:46:09;;;;;;;0.77;0.70;;;;;;;4.35;100.00;96274.66;4913514;28;20660;-89
2021/01/12 02:48:37;;;;;;;1.73;0.90;;;;;;;4.48;100.00;96267.53;4913190;28;20242;-89
2021/01/12 02:51:04;;;;;;;1.60;1.50;;;;;;;4.49;100.00;96264.00;4912743;28;20231;-92
2021/01/12 02:53:31;;;;;;;1.40;0.93;;;;;;;4.51;100.00;96261.28;4912859;28;20199;-88
2021/01/12 02:55:58;;;;;;;1.07;1.07;;;;;;;4.29;100.00;96243.91;4913160;29;20650;-91
2021/01/12 02:58:24;;;;;;;0.93;0.93;;;;;;;4.32;100.00;96246.28;4913068;29;20211;-90
2021/01/12 03:00:52;;;;;;;1.93;0.90;;;;;;;4.34;100.00;96252.19;4913588;28;20632;-90
2021/01/12 03:03:19;;;;;;;1.00;1.00;;;;;;;4.34;100.00;96267.81;4913005;29;20243;-89
2021/01/12 03:05:46;;;;;;;0.73;0.73;;;;;;;3.95;100.00;96300.31;4912617;28;20207;-89
2021/01/12 03:08:14;;;;;;;2.37;1.23;;;;;;;4.02;100.00;96323.16;4913318;28;20211;-90
2021/01/12 03:10:40;;;;;;;0.80;0.80;;;;;;;3.88;100.00;96341.59;4899492;28;20212;-89
2021/01/12 03:13:07;;;;;;;0.70;0.70;;;;;;;3.76;100.00;96345.09;4893893;29;20314;-90
2021/01/12 03:15:36;;;;;;;1.20;0.83;;;;;;;4.02;100.00;96333.56;4894123;29;20200;-89
2021/01/12 03:18:04;;;;;;;0.77;0.77;;;;;;;4.27;100.00;96329.06;4896993;29;20587;-90
2021/01/12 03:20:31;;;;;;;19.43;10.23;;;;;;;4.30;100.00;96323.63;4897473;29;20204;-89
2021/01/12 03:22:57;;;;;;;8.03;4.60;;;;;;;4.41;100.00;96304.59;4897272;29;20205;-89
2021/01/12 03:25:24;;;;;;;13.90;8.67;;;;;;;4.47;100.00;96299.75;4897625;29;20601;-89
2021/01/12 03:27:51;;;;;;;23.53;15.90;;;;;;;4.42;100.00;96291.44;4897329;29;20212;-89
2021/01/12 03:30:19;;;;;;;12.43;9.20;;;;;;;4.34;100.00;96269.59;4897063;29;20449;-89
2021/01/12 03:32:46;;;;;;;25.80;17.27;;;;;;;4.28;100.00;96255.28;4896980;29;20566;-90
2021/01/12 03:35:14;;;;;;;26.30;19.43;;;;;;;4.48;100.00;96241.53;4896941;29;20238;-89
2021/01/12 03:37:40;;;;;;;10.33;7.80;;;;;;;4.44;100.00;96221.06;4896942;29;20211;-89
2021/01/12 03:40:09;;;;;;;5.17;4.63;;;;;;;4.52;100.00;96211.69;4897220;29;20212;-90
2021/01/12 03:42:36;;;;;;;3.17;2.50;;;;;;;4.17;100.00;96195.47;4897089;29;20232;-90
2021/01/12 03:45:03;;;;;;;13.57;2.70;;;;;;;4.21;100.00;96195.09;4896771;29;20576;-89
2021/01/12 03:47:30;;;;;;;1.97;1.30;;;;;;;4.02;100.00;96193.13;4896524;29;20728;-89
2021/01/12 03:49:57;;;;;;;32.83;3.00;;;;;;;4.19;100.00;96210.00;4897102;29;20300;-89
2021/01/12 03:52:26;;;;;;;14.67;3.60;;;;;;;3.98;100.00;96206.47;4896769;29;20603;-90
2021/01/12 03:54:52;;;;;;;1.63;1.53;;;;;;;3.91;100.00;96205.28;4896400;29;20239;-90
2021/01/12 03:57:19;;;;;;;1.23;0.87;;;;;;;3.80;100.00;96185.31;4896583;29;20200;-90
2021/01/12 03:59:46;;;;;;;0.60;0.60;;;;;;;3.83;100.00;96186.88;4896646;29;20208;-90
2021/01/12 04:02:13;;;;;;;0.40;0.40;;;;;;;3.91;100.00;96198.31;4896678;29;20295;-90
2021/01/12 04:08:04;;;;;;;1.40;0.97;;;;;;;3.76;100.00;96223.72;4863995;29;20247;-90
2021/01/12 04:10:31;;;;;;;2.27;2.07;;;;;;;3.77;100.00;96219.34;4896538;29;20299;-91
2021/01/12 04:13:00;;;;;;;1.60;1.47;;;;;;;3.94;100.00;96234.47;4896632;29;20286;-91
2021/01/12 04:15:27;;;;;;;0.50;0.50;;;;;;;4.08;100.00;96246.41;4896170;29;20204;-91
2021/01/12 04:17:54;;;;;;;0.50;0.50;;;;;;;3.99;100.00;96253.16;4896226;29;20283;-90
2021/01/12 04:20:21;;;;;;;0.80;0.77;;;;;;;4.07;100.00;96251.75;4896543;29;20259;-89
2021/01/12 04:22:48;;;;;;;3.27;2.97;;;;;;;4.21;100.00;96249.72;4896384;29;20209;-90
2021/01/12 04:25:16;;;;;;;3.03;2.83;;;;;;;4.11;100.00;96250.56;4896414;29;20239;-89
2021/01/12 04:27:43;;;;;;;5.03;4.00;;;;;;;4.02;100.00;96259.91;4896290;29;20291;-88
2021/01/12 04:30:11;;;;;;;2.53;2.33;;;;;;;3.86;100.00;96281.06;4896459;29;20208;-91
2021/01/12 04:32:37;;;;;;;3.00;1.03;;;;;;;3.85;100.00;96297.59;4895839;29;20228;-90
2021/01/12 04:35:05;;;;;;;1.30;1.20;;;;;;;3.86;100.00;96306.22;4896147;29;20235;-90
2021/01/12 04:37:32;;;;;;;2.37;1.33;;;;;;;3.60;100.00;96323.78;4896238;29;20216;-90
2021/01/12 04:39:59;;;;;;;2.43;2.23;;;;;;;3.73;100.00;96316.72;4896432;29;20287;-90
2021/01/12 04:42:32;;;;;;;1.30;1.20;;;;;;;3.76;100.00;96296.50;4896194;28;20270;-90
2021/01/12 04:45:00;;;;;;;1.63;1.10;;;;;;;4.01;100.00;96284.25;4895772;29;20208;-89
2021/01/12 04:47:27;;;;;;;0.60;0.60;;;;;;;4.05;100.00;96273.50;4895835;29;20287;-91
2021/01/12 04:49:54;;;;;;;2.00;1.00;;;;;;;4.00;100.00;96249.63;4895942;29;20724;-89
2021/01/12 04:52:21;;;;;;;1.33;1.23;;;;;;;3.97;100.00;96242.03;4895705;29;20704;-89
2021/01/12 04:54:51;;;;;;;6.10;5.50;;;;;;;4.08;100.00;96238.63;4895610;29;20243;-89
2021/01/12 04:57:18;;;;;;;6.93;6.23;;;;;;;4.22;100.00;96234.94;4896513;29;20264;-89
2021/01/12 04:59:46;;;;;;;5.23;4.13;;;;;;;4.09;100.00;96214.28;4896517;29;20208;-83
2021/01/12 05:02:14;;;;;;;4.13;3.73;;;;;;;4.09;100.00;96193.47;4896679;29;20236;-89
2021/01/12 05:04:43;;;;;;;4.43;3.20;;;;;;;4.20;100.00;96167.44;4896304;29;20294;-89
2021/01/12 05:07:10;;;;;;;3.43;3.03;;;;;;;4.15;100.00;96177.34;4896621;29;20215;-89
2021/01/12 05:09:39;;;;;;;2.73;2.53;;;;;;;3.98;100.00;96172.66;4896440;29;20201;-90
2021/01/12 05:12:07;;;;;;;2.10;1.57;;;;;;;3.86;100.00;96168.44;4895918;29;20228;-89
2021/01/12 05:14:38;;;;;;;3.13;2.83;;;;;;;3.85;100.00;96159.81;4896576;29;20204;-90
2021/01/12 05:17:06;;;;;;;2.53;2.33;;;;;;;3.88;100.00;96149.19;4896550;29;20197;-90
2021/01/12 05:19:33;;;;;;;3.03;2.80;;;;;;;4.08;100.00;96141.56;4896376;29;20239;-90
2021/01/12 05:22:03;;;;;;;7.67;6.13;;;;;;;3.96;100.00;96123.38;4896079;29;20211;-90
2021/01/12 05:24:40;;;;;;;4.23;3.93;;;;;;;4.03;100.00;96129.75;4896330;29;20204;-90
2021/01/12 05:27:09;;;;;;;7.03;6.43;;;;;;;4.03;100.00;96126.31;4896166;29;20739;-89
2021/01/12 05:29:38;;;;;;;29.20;14.90;;;;;;;4.01;100.00;96129.03;4896138;29;20295;-90
2021/01/12 05:32:09;;;;;;;19.27;11.70;;;;;;;3.97;100.00;96148.44;4895953;29;20232;-90
2021/01/12 05:34:36;;;;;;;6.30;5.00;;;;;;;4.11;100.00;96162.13;4896160;29;20665;-90
2021/01/12 05:37:05;;;;;;;1.90;1.70;;;;;;;3.91;100.00;96164.50;4895915;29;20243;-88
2021/01/12 05:39:37;;;;;;;3.00;2.40;;;;;;;3.81;100.00;96155.81;4895594;29;20211;-90
2021/01/12 05:42:07;;;;;;;3.63;3.33;;;;;;;4.02;100.00;96154.13;4896326;29;20286;-91
2021/01/12 05:44:37;;;;;;;2.50;2.23;;;;;;;3.91;100.00;96158.47;4896002;29;20211;-90
2021/01/12 05:47:06;;;;;;;3.13;2.73;;;;;;;3.93;100.00;96157.44;4895949;29;20282;-90
2021/01/12 05:49:33;;;;;;;2.27;2.07;;;;;;;3.93;100.00;96151.41;4895916;29;20243;-90
2021/01/12 05:52:00;;;;;;;1.60;1.50;;;;;;;3.87;100.00;96151.88;4895720;29;20417;-89
2021/01/12 05:54:36;;;;;;;1.60;1.50;;;;;;;3.64;100.00;96151.91;4895651;29;20207;-90
2021/01/12 05:57:04;;;;;;;1.53;1.43;;;;;;;3.50;100.00;96186.75;4895589;29;20747;-90
2021/01/12 05:59:32;;;;;;;1.80;1.60;;;;;;;3.50;100.00;96196.31;4895583;29;20215;-90
2021/01/12 06:02:00;;;;;;;1.50;1.40;;;;;;;3.64;100.00;96216.03;4895657;29;20247;-90
2021/01/12 06:04:28;;;;;;;2.30;2.13;;;;;;;3.54;100.00;96203.75;4895776;29;20587;-89
2021/01/12 06:06:56;;;;;;;2.50;2.30;;;;;;;3.78;100.00;96197.63;4895591;29;20665;-90
2021/01/12 06:09:24;;;;;;;1.43;1.37;;;;;;;3.70;100.00;96193.00;4895397;29;20670;-90
2021/01/12 06:11:52;;;;;;;2.03;1.93;;;;;;;3.54;100.00;96203.75;4895342;29;20281;-90
2021/01/12 06:14:22;;;;;;;2.40;2.20;;;;;;;3.63;100.00;96216.97;4895423;29;20295;-90
2021/01/12 06:16:49;;;;;;;5.63;3.70;;;;;;;3.43;100.00;96216.75;4895565;29;20686;-89
2021/01/12 06:19:17;;;;;;;3.73;3.43;;;;;;;3.42;100.00;96220.25;4895759;29;20584;-89
2021/01/12 06:22:16;;;;;;;3.23;2.90;;;;;;;3.21;100.00;96211.50;4895319;29;20258;-89
2021/01/12 06:24:50;;;;;;;4.07;1.77;;;;;;;3.48;100.00;96204.22;4895128;29;20207;-89
2021/01/12 06:27:18;;;;;;;1.77;1.67;;;;;;;3.69;100.00;96195.72;4895413;29;20189;-90
2021/01/12 06:29:47;;;;;;;3.10;2.50;;;;;;;3.83;100.00;96187.69;4895425;29;20586;-89
2021/01/12 06:32:16;;;;;;;2.13;1.93;;;;;;;3.91;100.00;96203.50;4895447;29;20604;-89
2021/01/12 06:34:43;;;;;;;2.00;1.80;;;;;;;3.81;100.00;96208.63;4895172;29;20204;-88
2021/01/12 06:37:13;;;;;;;2.53;2.10;;;;;;;3.88;100.00;96198.56;4895050;29;20743;-89
2021/01/12 06:39:45;;;;;;;2.67;2.47;;;;;;;3.75;100.00;96197.88;4895168;29;20294;-89
2021/01/12 06:42:14;;;;;;;5.27;4.00;;;;;;;3.60;100.00;96183.44;4895638;29;20613;-90
2021/01/12 06:44:42;;;;;;;2.87;2.57;;;;;;;3.50;100.00;96185.94;4895145;29;20288;-89
2021/01/12 06:47:11;;;;;;;2.97;2.40;;;;;;;3.60;100.00;96160.88;4895034;29;20207;-89
2021/01/12 06:49:39;;;;;;;14.47;12.93;;;;;;;3.71;100.00;96147.88;4895059;29;20250;-90
2021/01/12 06:52:07;;;;;;;25.03;21.23;;;;;;;3.89;100.00;96143.03;4897113;29;20271;-90
2021/01/12 06:54:36;;;;;;;9.07;8.10;;;;;;;3.92;100.00;96181.78;4898296;29;20216;-89
2021/01/12 06:57:05;;;;;;;7.50;6.63;;;;;;;3.84;100.00;96184.13;4898254;29;20673;-90
2021/01/12 06:59:37;;;;;;;2.23;2.03;;;;;;;3.42;100.00;96172.69;4898195;29;20204;-89
2021/01/12 07:02:18;;;;;;;7.50;3.80;;;;;;;3.76;100.00;96157.91;4898182;29;20196;-89
2021/01/12 07:04:59;;;;;;;4.10;3.70;;;;;;;3.83;100.00;96142.66;4899237;29;20196;-90
2021/01/12 07:07:29;;;;;;;4.63;3.27;;;;;;;3.80;100.00;96133.34;4898174;29;20199;-89
2021/01/12 07:09:58;;;;;;;11.00;7.50;;;;;;;3.92;100.00;96114.19;4898067;29;20220;-89
2021/01/12 07:12:30;;;;;;;17.73;12.53;;;;;;;3.87;100.00;96099.88;4898357;29;20223;-90
2021/01/12 07:14:58;;;;;;;9.83;8.80;;;;;;;4.09;100.00;96104.19;4898531;29;20701;-90
2021/01/12 07:17:27;;;;;;;11.53;8.03;;;;;;;4.10;100.00;96106.69;4898619;29;20244;-89
2021/01/12 07:20:15;;;;;;;52.83;47.07;;;;;;;4.05;100.00;96094.06;4897898;29;20346;-90
2021/01/12 07:22:51;;;;;;;2.83;2.63;;;;;;;4.00;100.00;96072.78;4897941;29;20192;-90
2021/01/12 07:25:21;;;;;;;3.63;3.43;;;;;;;4.08;100.00;96073.94;4897872;29;20191;-90
2021/01/12 07:28:03;;;;;;;16.77;15.73;;;;;;;3.97;100.00;96078.22;4898097;29;20569;-90
2021/01/12 07:30:30;;;;;;;3.83;3.53;;;;;;;3.95;100.00;96080.13;4897886;29;20196;-90
2021/01/12 07:33:00;;;;;;;4.23;2.03;;;;;;;3.86;100.00;96075.66;4897619;29;20271;-90
2021/01/12 07:35:27;;;;;;;2.50;2.30;;;;;;;3.98;100.00;96056.50;4898286;29;20207;-91
2021/01/12 07:37:54;;;;;;;3.40;3.17;;;;;;;4.03;100.00;96048.31;4897927;29;20232;-90
2021/01/12 07:40:22;;;;;;;5.17;3.53;;;;;;;4.01;100.00;96038.00;4897852;29;20200;-92
2021/01/12 07:42:50;;;;;;;3.30;3.00;;;;;;;3.78;100.00;96058.06;4897745;29;20255;-90
2021/01/12 07:45:19;;;;;;;3.20;2.90;;;;;;;3.76;100.00;96059.97;4897554;29;20196;-90
2021/01/12 07:47:50;;;;;;;5.60;4.70;;;;;;;3.79;100.00;96053.69;4897632;29;20371;-91
2021/01/12 07:50:17;;;;;;;5.40;4.90;;;;;;;3.87;100.00;96061.69;4897868;29;20192;-90
2021/01/12 07:52:44;;;;;;;3.43;3.13;;;;;;;3.97;100.00;96080.00;4897545;29;20319;-90
2021/01/12 07:55:10;;;;;;;4.20;3.73;;;;;;;3.91;100.00;96086.50;4897883;29;20244;-91
2021/01/12 07:57:37;;;;;;;5.47;4.90;;;;;;;3.90;100.00;96097.84;4897821;29;20207;-91
2021/01/12 08:00:08;;;;;;;9.93;5.30;;;;;;;3.87;100.00;96079.91;4897952;29;20230;-91
2021/01/12 08:02:37;;;;;;;15.70;8.43;;;;;;;3.85;100.00;96086.19;4896831;29;20197;-91
2021/01/12 08:05:07;;;;;;;5.40;3.97;;;;;;;3.64;100.00;96105.13;4897264;29;20700;-91
2021/01/12 08:07:34;;;;;;;2.83;2.63;;;;;;;3.75;100.00;96119.88;4897344;29;20200;-91
2021/01/12 08:10:02;;;;;;;3.30;3.00;;;;;;;3.73;100.00;96127.78;4897413;29;20291;-90
2021/01/12 08:12:28;;;;;;;2.60;2.40;;;;;;;3.74;100.00;96136.41;4897464;29;20367;-90
2021/01/12 08:14:56;;;;;;;5.63;4.63;;;;;;;3.78;100.00;96130.88;4896836;29;20204;-87
2021/01/12 08:17:25;;;;;;;8.37;6.57;;;;;;;3.73;100.00;96119.16;4897258;29;20204;-88
2021/01/12 08:19:54;;;;;;;5.80;4.43;;;;;;;3.69;100.00;96100.38;4896931;29;20200;-87
2021/01/12 08:22:21;;;;;;;4.30;3.90;;;;;;;3.52;100.00;96088.69;4896985;29;20581;-90
2021/01/12 08:24:48;;;;;;;6.93;6.10;;;;;;;3.54;100.00;96075.59;4897542;29;20208;-90
2021/01/12 08:27:21;;;;;;;5.07;4.53;;;;;;;3.52;100.00;96067.91;4896989;29;20215;-90
2021/01/12 08:29:48;;;;;;;5.30;4.80;;;;;;;3.66;100.00;96063.41;4897124;29;20208;-90
2021/01/12 08:32:18;;;;;;;4.93;4.43;;;;;;;3.63;100.00;96055.84;4896865;29;20315;-89
2021/01/12 08:34:57;;;;;;;3.80;3.43;;;;;;;3.55;100.00;96038.28;4897199;29;20614;-89
2021/01/12 08:37:24;;;;;;;4.47;4.07;;;;;;;3.50;100.00;96036.03;4897294;29;20592;-91
2021/01/12 08:39:52;;;;;;;2.90;2.60;;;;;;;3.34;100.00;96020.81;4896850;29;20244;-90
2021/01/12 08:42:20;;;;;;;4.27;3.83;;;;;;;3.41;100.00;96013.38;4896942;29;20624;-90
2021/01/12 08:44:48;;;;;;;6.27;5.63;;;;;;;3.48;100.00;96017.13;4896697;29;20203;-90
2021/01/12 08:47:15;;;;;;;4.80;4.30;;;;;;;3.52;100.00;96028.13;4896494;29;20295;-90
2021/01/12 08:49:41;;;;;;;5.43;4.93;;;;;;;3.28;100.00;96042.06;4896544;29;20193;-90
2021/01/12 08:52:10;;;;;;;4.90;4.40;;;;;;;3.27;100.00;96048.22;4896731;29;20264;-90
2021/01/12 08:54:37;;;;;;;3.03;2.73;;;;;;;3.24;100.00;96058.84;4896850;29;20655;-91
2021/01/12 08:57:05;;;;;;;4.07;3.77;;;;;;;3.29;100.00;96055.88;4896862;29;20590;-90
2021/01/12 08:59:34;;;;;;;4.03;3.73;;;;;;;3.18;100.00;96066.28;4896910;29;20204;-91
2021/01/12 09:02:01;;;;;;;4.03;3.63;;;;;;;3.26;100.00;96066.53;4896712;29;20295;-90
2021/01/12 09:04:28;;;;;;;3.93;3.63;;;;;;;3.21;100.00;96066.88;4896582;29;20208;-90
2021/01/12 09:07:03;;;;;;;5.13;3.60;;;;;;;3.16;100.00;96057.81;4896467;29;20209;-90
2021/01/12 09:09:31;;;;;;;5.90;5.30;;;;;;;3.28;100.00;96046.44;4896610;29;20200;-90
2021/01/12 09:12:00;;;;;;;3.97;3.57;;;;;;;3.29;100.00;96053.28;4896277;29;20295;-90
2021/01/12 09:14:31;;;;;;;4.27;3.80;;;;;;;3.38;100.00;96049.16;4895578;29;20246;-91
2021/01/12 09:17:02;;;;;;;3.70;3.10;;;;;;;3.25;100.00;96034.50;4896399;29;20732;-90
2021/01/12 09:19:36;;;;;;;6.07;4.43;;;;;;;3.38;100.00;96026.59;4896525;29;20664;-90
2021/01/12 09:22:17;;;;;;;2.60;2.40;;;;;;;3.54;100.00;96019.25;4896221;29;20196;-89
2021/01/12 09:24:49;;;;;;;3.30;2.87;;;;;;;3.56;100.00;96008.72;4896050;29;20215;-90
2021/01/12 09:27:24;;;;;;;2.77;2.57;;;;;;;3.60;100.00;96009.31;4896702;29;20227;-89
2021/01/12 09:29:51;;;;;;;4.57;3.47;;;;;;;3.72;100.00;95993.56;4896005;29;20206;-91
2021/01/12 09:32:29;;;;;;;9.07;7.50;;;;;;;3.66;100.00;95967.25;4896826;29;20274;-90
2021/01/12 09:34:56;;;;;;;15.97;11.57;;;;;;;3.57;100.00;95954.06;4896183;29;20211;-89
2021/01/12 09:37:23;;;;;;;18.10;13.93;;;;;;;3.54;100.00;95936.09;4895898;29;20204;-90
2021/01/12 09:39:55;;;;;;;6.40;5.77;;;;;;;3.49;100.00;95946.03;4896720;29;20209;-90
2021/01/12 09:42:24;;;;;;;14.70;10.20;;;;;;;3.54;100.00;95959.50;4896322;29;20196;-90
2021/01/12 09:44:52;;;;;;;8.97;6.80;;;;;;;3.53;100.00;95957.00;4895833;29;20222;-90
2021/01/12 09:47:19;;;;;;;4.10;3.70;;;;;;;3.61;100.00;95970.22;4895889;29;20646;-90
2021/01/12 09:49:46;;;;;;;4.33;3.93;;;;;;;3.56;100.00;95975.78;4895853;29;20193;-89
2021/01/12 09:52:13;;;;;;;3.97;3.43;;;;;;;3.54;100.00;95977.69;4895727;29;20275;-90
2021/01/12 09:54:45;;;;;;;4.10;3.80;;;;;;;3.62;100.00;95981.44;4895673;29;20204;-90
2021/01/12 09:57:13;;;;;;;3.03;2.73;;;;;;;3.66;100.00;95983.66;4896149;29;20192;-90
2021/01/12 09:59:40;;;;;;;3.37;3.07;;;;;;;3.56;100.00;95970.56;4895808;29;20215;-89
2021/01/12 10:02:08;;;;;;;3.60;2.87;;;;;;;3.62;100.00;95963.25;4895925;29;20208;-91
2021/01/12 10:04:35;;;;;;;5.37;4.47;;;;;;;3.59;100.00;95933.13;4895442;29;20239;-91
2021/01/12 10:07:01;;;;;;;2.93;2.63;;;;;;;3.61;100.00;95927.81;4895543;28;20216;-90
2021/01/12 10:09:29;;;;;;;2.80;2.60;;;;;;;3.62;100.00;95900.88;4895489;29;20235;-90
2021/01/12 10:11:56;;;;;;;2.97;2.67;;;;;;;3.70;100.00;95877.69;4895424;29;20267;-90
2021/01/12 10:14:24;;;;;;;1.77;1.67;;;;;;;3.69;100.00;95883.84;4895416;29;20216;-90
2021/01/12 10:16:51;;;;;;;1.97;1.83;;;;;;;3.50;100.00;95882.75;4895303;29;20227;-90
2021/01/12 10:19:18;;;;;;;3.00;2.70;;;;;;;3.52;100.00;95880.00;4895688;29;20208;-90
2021/01/12 10:21:48;;;;;;;3.33;2.40;;;;;;;3.61;100.00;95897.47;4895817;29;20243;-91
2021/01/12 10:24:14;;;;;;;2.90;2.60;;;;;;;3.71;100.00;95894.94;4895433;29;20231;-89
2021/01/12 10:26:46;;;;;;;3.97;3.57;;;;;;;3.66;100.00;95879.69;4895505;29;20247;-90
2021/01/12 10:29:12;;;;;;;4.27;3.57;;;;;;;3.84;100.00;95872.16;4895342;29;20251;-90
2021/01/12 10:31:48;;;;;;;4.63;4.17;;;;;;;4.09;100.00;95872.72;4895498;29;20709;-90
2021/01/12 10:34:15;;;;;;;5.30;3.97;;;;;;;4.09;100.00;95851.91;4895120;29;20200;-90
2021/01/12 10:36:42;;;;;;;12.17;9.13;;;;;;;4.02;100.00;95839.44;4895449;29;20693;-90
2021/01/12 10:39:09;;;;;;;15.73;13.13;;;;;;;3.74;100.00;95825.34;4894955;28;20581;-90
2021/01/12 10:41:40;;;;;;;10.87;9.53;;;;;;;3.64;100.00;95824.44;4895072;29;20299;-90
2021/01/12 10:44:07;;;;;;;7.13;6.43;;;;;;;3.55;100.00;95826.00;4895363;29;20200;-90
2021/01/12 10:46:34;;;;;;;8.80;7.30;;;;;;;3.66;100.00;95847.69;4895481;29;20741;-90
2021/01/12 10:49:02;;;;;;;7.50;6.80;;;;;;;3.72;100.00;95839.41;4895091;29;20333;-90
2021/01/12 10:51:30;;;;;;;5.60;3.10;;;;;;;3.73;100.00;95831.47;4894980;29;20255;-90
2021/01/12 10:53:57;;;;;;;5.00;4.33;;;;;;;3.61;100.00;95823.88;4895207;29;20208;-91
2021/01/12 10:56:24;;;;;;;4.80;4.37;;;;;;;3.58;100.00;95823.16;4895071;29;20257;-91
2021/01/12 10:58:52;;;;;;;2.60;2.40;;;;;;;3.53;100.00;95807.16;4895461;29;20248;-90
2021/01/12 11:01:21;;;;;;;2.93;2.67;;;;;;;3.85;100.00;95806.25;4894783;29;20685;-90
2021/01/12 11:03:48;;;;;;;5.73;3.70;;;;;;;3.94;100.00;95800.25;4895255;29;20207;-91
2021/01/12 11:06:19;;;;;;;5.00;4.47;;;;;;;4.19;100.00;95799.03;4894773;29;20207;-90
2021/01/12 11:08:48;;;;;;;36.43;20.27;;;;;;;4.22;100.00;95796.13;4894838;29;20734;-91
2021/01/12 11:11:20;;;;;;;13.93;10.67;;;;;;;4.02;100.00;95791.81;4894775;29;20638;-91
2021/01/12 11:13:51;;;;;;;5.07;4.57;;;;;;;4.20;100.00;95792.03;4894697;29;20217;-90
2021/01/12 11:16:18;;;;;;;21.67;15.57;;;;;;;4.35;100.00;95771.69;4894877;29;20287;-90
2021/01/12 11:18:49;;;;;;;14.10;11.90;;;;;;;4.43;100.00;95762.22;4894919;29;20665;-91
2021/01/12 11:21:17;;;;;;;19.13;15.30;;;;;;;4.42;100.00;95745.00;4895078;29;20232;-90
2021/01/12 11:23:44;;;;;;;26.17;22.53;;;;;;;4.43;100.00;95740.59;4894721;29;20201;-90
2021/01/12 11:26:11;;;;;;;8.13;6.73;;;;;;;4.33;100.00;95752.75;4894799;29;20250;-90
2021/01/12 11:28:40;;;;;;;7.73;6.23;;;;;;;4.04;100.00;95753.50;4894490;29;20204;-90
2021/01/12 11:31:07;;;;;;;11.77;9.63;;;;;;;4.28;100.00;95755.78;4894486;29;20228;-90
2021/01/12 11:33:34;;;;;;;7.00;6.13;;;;;;;4.39;100.00;95732.25;4894552;29;20243;-91
2021/01/12 11:55:22;;;;;;;5.37;4.13;;;;;;;3.98;91.15;95522.59;5151785;27;20542;-90
2021/01/12 11:57:49;;;;;;;6.60;5.10;;;;;;;3.97;92.29;95559.97;5152343;27;20193;-90
2021/01/12 12:00:17;;;;;;;5.13;3.50;;;;;;;4.07;92.87;95592.00;5151858;27;20246;-91
2021/01/12 12:02:44;;;;;;;7.80;6.13;;;;;;;4.17;93.22;95623.22;5151789;27;20194;-91